createdAt,value
2023-06-24T00:00:23.347Z,43.58
2023-06-24T00:02:52.315Z,43.28
2023-06-24T00:05:19.308Z,45.08
2023-06-24T00:07:46.760Z,39.75
2023-06-24T00:10:17.167Z,43.25
2023-06-24T00:12:46.279Z,41.63
2023-06-24T00:15:13.244Z,44.80
2023-06-24T00:17:41.410Z,43.88
2023-06-24T00:20:11.207Z,40.67
2023-06-24T00:22:44.946Z,45.38
2023-06-24T00:25:15.759Z,43.42
2023-06-24T00:27:44.391Z,38.35
2023-06-24T00:30:12.111Z,47.13
2023-06-24T00:32:38.991Z,38.90
2023-06-24T00:35:06.571Z,37.20
2023-06-24T00:37:33.408Z,37.53
2023-06-24T00:40:00.256Z,41.90
2023-06-24T00:42:27.972Z,44.45
2023-06-24T00:44:54.882Z,40.97
2023-06-24T00:47:22.238Z,41.33
2023-06-24T00:49:49.362Z,42.80
2023-06-24T00:52:16.858Z,43.03
2023-06-24T00:54:45.261Z,39.60
2023-06-24T00:57:14.070Z,41.70
2023-06-24T00:59:44.140Z,41.88
2023-06-24T01:02:11.968Z,44.90
2023-06-24T01:04:39.161Z,43.38
2023-06-24T01:07:07.459Z,41.22
2023-06-24T01:09:37.175Z,42.80
2023-06-24T01:12:04.382Z,42.33
2023-06-24T01:14:31.608Z,43.35
2023-06-24T01:17:16.872Z,45.60
2023-06-24T01:20:28.812Z,40.20
2023-06-24T01:23:32.403Z,44.00
2023-06-24T01:26:22.926Z,44.25
2023-06-24T01:29:46.267Z,42.08
2023-06-24T01:32:36.433Z,46.70
2023-06-24T01:35:10.892Z,41.25
2023-06-24T01:37:48.848Z,43.85
2023-06-24T01:40:28.327Z,46.55
2023-06-24T01:42:58.823Z,45.40
2023-06-24T01:45:45.337Z,43.17
2023-06-24T01:48:17.934Z,45.25
2023-06-24T01:50:54.824Z,45.50
2023-06-24T01:53:22.229Z,43.58
2023-06-24T01:55:51.237Z,45.10
2023-06-24T01:58:19.295Z,43.70
2023-06-24T02:05:25.912Z,55.88
2023-06-24T02:07:53.901Z,40.33
2023-06-24T02:10:21.723Z,45.97
2023-06-24T02:12:50.666Z,47.53
2023-06-24T02:15:19.294Z,39.28
2023-06-24T02:17:48.507Z,41.30
2023-06-24T02:20:16.098Z,41.67
2023-06-24T02:22:43.628Z,44.15
2023-06-24T02:25:11.130Z,42.38
2023-06-24T02:27:38.820Z,42.50
2023-06-24T02:30:07.329Z,46.90
2023-06-24T02:32:34.363Z,45.78
2023-06-24T02:35:01.345Z,43.05
2023-06-24T02:37:29.287Z,42.25
2023-06-24T02:39:57.545Z,45.25
2023-06-24T02:42:24.404Z,44.83
2023-06-24T02:44:51.356Z,43.47
2023-06-24T02:47:18.549Z,42.47
2023-06-24T02:49:49.335Z,43.08
2023-06-24T02:52:17.205Z,47.47
2023-06-24T02:54:45.661Z,40.33
2023-06-24T02:57:40.291Z,50.35
2023-06-24T03:00:26.831Z,41.42
2023-06-24T03:03:14.093Z,40.08
2023-06-24T03:05:57.912Z,40.92
2023-06-24T03:08:27.272Z,38.15
2023-06-24T03:10:57.555Z,43.13
2023-06-24T03:16:22.266Z,45.05
2023-06-24T03:19:12.029Z,43.85
2023-06-24T03:21:38.959Z,43.65
2023-06-24T03:24:10.151Z,44.87
2023-06-24T03:26:41.018Z,41.65
2023-06-24T03:29:10.402Z,38.92
2023-06-24T03:31:45.472Z,41.63
2023-06-24T03:34:17.776Z,41.13
2023-06-24T03:36:45.305Z,44.67
2023-06-24T03:39:14.558Z,41.70
2023-06-24T03:41:41.352Z,44.28
2023-06-24T03:44:08.947Z,42.17
2023-06-24T03:46:36.546Z,42.33
2023-06-24T03:49:03.641Z,39.15
2023-06-24T03:51:30.890Z,44.53
2023-06-24T03:53:58.101Z,40.22
2023-06-24T03:56:24.930Z,42.20
2023-06-24T03:58:51.760Z,41.45
2023-06-24T04:01:21.427Z,43.30
2023-06-24T04:03:48.545Z,39.67
2023-06-24T04:06:15.711Z,40.65
2023-06-24T04:08:44.577Z,40.47
2023-06-24T04:11:12.727Z,39.50
2023-06-24T04:13:39.698Z,40.53
2023-06-24T04:16:06.729Z,37.03
2023-06-24T04:18:35.390Z,40.75
2023-06-24T04:21:02.349Z,43.38
2023-06-24T04:23:29.488Z,45.30
2023-06-24T04:25:57.032Z,44.97
2023-06-24T04:28:23.915Z,43.90
2023-06-24T04:30:51.292Z,45.90
2023-06-24T04:33:18.264Z,43.70
2023-06-24T04:35:45.650Z,42.45
2023-06-24T04:38:12.820Z,41.10
2023-06-24T04:40:39.732Z,45.05
2023-06-24T04:43:06.541Z,41.80
2023-06-24T04:45:33.894Z,43.83
2023-06-24T04:48:01.025Z,45.42
2023-06-24T04:50:29.327Z,46.47
2023-06-24T04:52:57.870Z,43.47
2023-06-24T04:55:25.075Z,48.22
2023-06-24T04:57:52.200Z,43.63
2023-06-24T05:00:19.296Z,46.08
2023-06-24T05:02:46.720Z,42.67
2023-06-24T05:05:13.656Z,41.15
2023-06-24T05:07:40.767Z,41.63
2023-06-24T05:10:08.301Z,42.58
2023-06-24T05:12:35.315Z,47.15
2023-06-24T05:15:02.580Z,42.85
2023-06-24T05:17:29.675Z,41.42
2023-06-24T05:19:56.823Z,39.33
2023-06-24T05:22:23.665Z,47.85
2023-06-24T05:24:50.945Z,38.40
2023-06-24T05:27:18.711Z,42.33
2023-06-24T05:29:46.514Z,37.92
2023-06-24T05:32:13.905Z,44.95
2023-06-24T05:34:41.362Z,41.30
2023-06-24T05:37:08.481Z,42.58
2023-06-24T05:39:35.536Z,44.63
2023-06-24T05:42:03.028Z,39.83
2023-06-24T05:44:30.177Z,41.35
2023-06-24T05:46:57.132Z,43.08
2023-06-24T05:49:24.163Z,41.80
2023-06-24T05:51:51.228Z,42.42
2023-06-24T05:54:18.125Z,42.30
2023-06-24T05:56:45.688Z,42.58
2023-06-24T05:59:12.705Z,38.65
2023-06-24T06:01:39.596Z,40.35
2023-06-24T06:04:06.637Z,37.97
2023-06-24T06:06:33.555Z,39.35
2023-06-24T06:09:00.880Z,39.38
2023-06-24T06:11:27.895Z,41.83
2023-06-24T06:13:54.874Z,41.03
2023-06-24T06:16:21.852Z,40.10
2023-06-24T06:18:48.918Z,36.80
2023-06-24T06:21:16.214Z,40.83
2023-06-24T06:23:43.419Z,40.25
2023-06-24T06:26:10.750Z,38.17
2023-06-24T06:28:37.612Z,37.97
2023-06-24T06:31:04.614Z,35.30
2023-06-24T06:33:31.531Z,36.13
2023-06-24T06:35:58.316Z,38.67
2023-06-24T06:38:25.145Z,33.60
2023-06-24T06:40:51.943Z,40.15
2023-06-24T06:43:19.365Z,37.55
2023-06-24T06:45:46.343Z,36.75
2023-06-24T06:48:13.277Z,35.97
2023-06-24T06:50:40.125Z,40.83
2023-06-24T06:53:06.930Z,38.08
2023-06-24T06:55:34.577Z,45.03
2023-06-24T06:58:01.779Z,36.70
2023-06-24T07:00:28.553Z,35.85
2023-06-24T07:02:55.607Z,36.85
2023-06-24T07:05:22.459Z,37.30
2023-06-24T07:07:51.208Z,33.80
2023-06-24T07:10:20.984Z,40.35
2023-06-24T07:12:52.455Z,39.85
2023-06-24T07:15:20.704Z,38.40
2023-06-24T07:17:47.827Z,39.63
2023-06-24T07:20:14.820Z,40.03
2023-06-24T07:22:41.648Z,40.55
2023-06-24T07:25:08.722Z,37.22
2023-06-24T07:27:35.876Z,35.03
2023-06-24T07:30:02.726Z,40.28
2023-06-24T07:32:30.150Z,38.95
2023-06-24T07:34:57.859Z,36.30
2023-06-24T07:37:29.438Z,38.22
2023-06-24T07:39:56.478Z,36.00
2023-06-24T07:42:23.375Z,45.42
2023-06-24T07:44:50.700Z,37.13
2023-06-24T07:47:20.673Z,38.67
2023-06-24T07:49:47.777Z,37.95
2023-06-24T07:52:14.660Z,39.10
2023-06-24T07:54:42.551Z,37.03
2023-06-24T07:57:09.623Z,35.40
2023-06-24T07:59:36.480Z,39.13
2023-06-24T08:02:03.641Z,39.25
2023-06-24T08:04:30.505Z,43.03
2023-06-24T08:06:57.549Z,39.33
2023-06-24T08:09:24.575Z,41.63
2023-06-24T08:11:51.443Z,36.65
2023-06-24T08:14:18.333Z,42.65
2023-06-24T08:16:45.393Z,39.92
2023-06-24T08:19:12.308Z,41.20
2023-06-24T08:21:39.155Z,46.45
2023-06-24T08:24:06.763Z,35.45
2023-06-24T08:26:34.043Z,39.83
2023-06-24T08:29:02.936Z,42.03
2023-06-24T08:31:31.770Z,45.97
2023-06-24T08:34:01.055Z,38.17
2023-06-24T08:36:30.392Z,40.25
2023-06-24T08:38:57.512Z,38.85
2023-06-24T08:41:28.243Z,41.75
2023-06-24T08:43:55.876Z,39.80
2023-06-24T08:46:26.415Z,40.22
2023-06-24T08:49:13.464Z,41.28
2023-06-24T08:51:42.845Z,38.83
2023-06-24T08:54:11.489Z,38.60
2023-06-24T08:56:41.856Z,40.88
2023-06-24T08:59:09.871Z,36.40
2023-06-24T09:01:36.768Z,38.63
2023-06-24T09:04:05.095Z,36.03
2023-06-24T09:06:35.185Z,41.90
2023-06-24T09:09:02.039Z,39.53
2023-06-24T09:11:29.478Z,45.08
2023-06-24T09:13:57.982Z,40.03
2023-06-24T09:16:25.720Z,35.20
2023-06-24T09:18:54.051Z,37.47
2023-06-24T09:21:26.265Z,38.03
2023-06-24T09:23:55.140Z,34.40
2023-06-24T09:26:30.920Z,37.25
2023-06-24T09:28:58.724Z,37.33
2023-06-24T09:31:25.693Z,37.47
2023-06-24T09:33:52.801Z,34.28
2023-06-24T09:36:19.764Z,36.35
2023-06-24T09:38:47.029Z,34.20
2023-06-24T09:41:15.984Z,38.55
2023-06-24T09:43:45.961Z,36.58
2023-06-24T09:46:13.931Z,50.88
2023-06-24T09:48:40.812Z,36.55
2023-06-24T09:51:08.280Z,32.42
2023-06-24T09:53:36.425Z,35.75
2023-06-24T09:56:05.827Z,34.65
2023-06-24T09:58:37.079Z,37.70
2023-06-24T10:01:06.522Z,35.28
2023-06-24T10:03:38.157Z,35.10
2023-06-24T10:06:06.730Z,31.55
2023-06-24T10:08:33.758Z,33.38
2023-06-24T10:11:01.780Z,34.53
2023-06-24T10:13:29.259Z,32.30
2023-06-24T10:15:58.199Z,29.48
2023-06-24T10:18:40.446Z,30.80
2023-06-24T10:21:09.354Z,34.53
2023-06-24T10:23:44.763Z,34.75
2023-06-24T10:26:30.824Z,29.85
2023-06-24T10:29:06.968Z,38.92
2023-06-24T10:31:45.874Z,32.80
2023-06-24T10:34:33.202Z,30.83
2023-06-24T10:37:09.159Z,32.33
2023-06-24T10:39:50.223Z,33.33
2023-06-24T10:42:48.448Z,30.70
2023-06-24T10:45:20.685Z,31.30
2023-06-24T10:47:57.766Z,27.33
2023-06-24T10:50:25.781Z,40.20
2023-06-24T10:52:57.487Z,30.10
2023-06-24T10:55:27.532Z,26.98
2023-06-24T10:57:54.552Z,30.05
2023-06-24T11:00:23.477Z,31.20
2023-06-24T11:02:50.444Z,35.67
2023-06-24T11:05:17.813Z,24.45
2023-06-24T11:07:44.662Z,27.23
2023-06-24T11:10:14.372Z,28.33
2023-06-24T11:12:43.903Z,29.85
2023-06-24T11:15:13.986Z,27.33
2023-06-24T11:17:42.546Z,29.97
2023-06-24T11:20:14.056Z,28.77
2023-06-24T11:22:42.503Z,30.05
2023-06-24T11:25:23.092Z,31.48
2023-06-24T11:27:54.346Z,28.30
2023-06-24T11:30:21.841Z,31.13
2023-06-24T11:32:49.437Z,30.10
2023-06-24T11:35:17.063Z,27.55
2023-06-24T11:37:46.869Z,27.70
2023-06-24T11:40:17.569Z,27.27
2023-06-24T11:42:46.418Z,29.27
2023-06-24T11:45:17.064Z,30.88
2023-06-24T11:47:44.450Z,32.03
2023-06-24T11:50:11.561Z,30.30
2023-06-24T11:52:46.527Z,30.90
2023-06-24T11:55:18.429Z,32.60
2023-06-24T11:57:52.056Z,31.15
2023-06-24T12:00:29.562Z,32.83
2023-06-24T12:03:15.760Z,30.02
2023-06-24T12:05:46.284Z,41.88
2023-06-24T12:08:17.771Z,32.22
2023-06-24T12:10:45.985Z,31.65
2023-06-24T12:13:13.488Z,30.98
2023-06-24T12:15:40.353Z,30.27
2023-06-24T12:18:09.659Z,29.13
2023-06-24T12:20:38.990Z,34.95
2023-06-24T12:23:06.877Z,30.30
2023-06-24T12:25:34.184Z,29.83
2023-06-24T12:28:01.381Z,31.92
2023-06-24T12:30:29.541Z,28.15
2023-06-24T12:32:56.708Z,31.15
2023-06-24T12:35:27.387Z,27.73
2023-06-24T12:40:20.998Z,31.17
2023-06-24T12:42:47.868Z,30.95
2023-06-24T12:45:14.893Z,32.20
2023-06-24T12:47:41.795Z,30.20
2023-06-24T12:50:10.194Z,27.38
2023-06-24T12:52:38.302Z,27.60
2023-06-24T12:55:08.223Z,31.13
2023-06-24T12:57:36.414Z,29.37
2023-06-24T13:00:08.717Z,28.00
2023-06-24T13:02:36.562Z,32.67
2023-06-24T13:05:04.729Z,28.90
2023-06-24T13:07:32.179Z,30.85
2023-06-24T13:10:00.472Z,32.90
2023-06-24T13:12:27.552Z,35.10
2023-06-24T13:14:54.382Z,32.45
2023-06-24T13:17:23.904Z,33.25
2023-06-24T13:19:51.414Z,32.45
2023-06-24T13:22:19.471Z,32.47
2023-06-24T13:24:46.441Z,29.40
2023-06-24T13:27:13.234Z,31.50
2023-06-24T13:29:39.997Z,30.55
2023-06-24T13:32:07.593Z,32.33
2023-06-24T13:34:35.557Z,30.40
2023-06-24T13:37:02.377Z,35.00
2023-06-24T13:39:29.272Z,36.83
2023-06-24T13:41:58.012Z,39.65
2023-06-24T13:44:25.006Z,40.80
2023-06-24T13:46:54.353Z,33.05
2023-06-24T13:49:21.420Z,34.75
2023-06-24T13:51:48.316Z,32.70
2023-06-24T13:54:15.132Z,30.25
2023-06-24T13:56:41.876Z,35.08
2023-06-24T13:59:08.707Z,29.30
2023-06-24T14:01:37.056Z,32.75
2023-06-24T14:04:03.858Z,28.85
2023-06-24T14:06:30.799Z,34.17
2023-06-24T14:08:57.670Z,30.15
2023-06-24T14:11:24.465Z,33.85
2023-06-24T14:13:51.297Z,32.95
2023-06-24T14:16:18.147Z,31.85
2023-06-24T14:18:45.379Z,28.40
2023-06-24T14:21:12.247Z,31.30
2023-06-24T14:23:39.128Z,33.20
2023-06-24T14:26:05.968Z,28.92
2023-06-24T14:28:33.035Z,31.95
2023-06-24T14:30:59.890Z,31.75
2023-06-24T14:33:26.816Z,32.63
2023-06-24T14:35:53.724Z,29.38
2023-06-24T14:38:20.861Z,31.35
2023-06-24T14:40:47.875Z,35.97
2023-06-24T14:43:14.632Z,29.98
2023-06-24T14:45:41.569Z,30.35
2023-06-24T14:48:08.472Z,29.65
2023-06-24T14:50:35.511Z,31.23
2023-06-24T14:53:04.017Z,29.10
2023-06-24T14:55:31.152Z,32.85
2023-06-24T14:57:58.316Z,28.73
2023-06-24T15:00:25.391Z,30.50
2023-06-24T15:02:52.359Z,32.92
2023-06-24T15:05:19.245Z,31.00
2023-06-24T15:07:46.061Z,28.50
2023-06-24T15:10:12.964Z,30.42
2023-06-24T15:12:41.060Z,34.17
2023-06-24T15:15:08.549Z,28.23
2023-06-24T15:17:36.567Z,33.97
2023-06-24T15:20:04.034Z,26.35
2023-06-24T15:22:31.564Z,32.60
2023-06-24T15:24:58.342Z,28.00
2023-06-24T15:27:25.304Z,32.80
2023-06-24T15:29:52.141Z,30.50
2023-06-24T15:32:19.344Z,31.05
2023-06-24T15:34:46.214Z,29.00
2023-06-24T15:37:15.544Z,31.08
2023-06-24T15:39:42.988Z,30.38
2023-06-24T15:42:09.998Z,29.42
2023-06-24T15:44:36.878Z,31.27
2023-06-24T15:47:04.779Z,28.67
2023-06-24T15:49:31.779Z,34.83
2023-06-24T15:51:58.646Z,29.02
2023-06-24T15:54:25.472Z,32.58
2023-06-24T15:56:52.346Z,33.53
2023-06-24T15:59:19.625Z,38.22
2023-06-24T16:01:46.482Z,30.52
2023-06-24T16:04:13.720Z,32.20
2023-06-24T16:06:40.538Z,28.95
2023-06-24T16:09:07.349Z,30.05
2023-06-24T16:11:34.172Z,32.65
2023-06-24T16:14:01.235Z,31.92
2023-06-24T16:16:27.980Z,30.67
2023-06-24T16:18:54.809Z,34.15
2023-06-24T16:21:21.705Z,33.15
2023-06-24T16:23:48.709Z,30.20
2023-06-24T16:26:16.938Z,29.77
2023-06-24T16:28:43.778Z,32.95
2023-06-24T16:31:10.617Z,29.38
2023-06-24T16:33:37.513Z,31.00
2023-06-24T16:36:04.390Z,29.60
2023-06-24T16:38:31.203Z,33.05
2023-06-24T16:40:58.161Z,32.30
2023-06-24T16:43:25.003Z,31.92
2023-06-24T16:45:51.864Z,31.42
2023-06-24T16:48:18.657Z,32.10
2023-06-24T16:50:45.608Z,28.67
2023-06-24T16:53:12.484Z,27.55
2023-06-24T16:55:40.099Z,31.20
2023-06-24T16:58:07.726Z,30.63
2023-06-24T17:00:34.770Z,31.90
2023-06-24T17:03:01.830Z,29.13
2023-06-24T17:05:28.892Z,31.77
2023-06-24T17:07:55.649Z,32.97
2023-06-24T17:10:22.479Z,31.33
2023-06-24T17:12:49.260Z,32.00
2023-06-24T17:15:16.220Z,31.33
2023-06-24T17:17:43.213Z,32.22
2023-06-24T17:20:10.288Z,30.90
2023-06-24T17:22:37.103Z,33.53
2023-06-24T17:25:04.165Z,29.02
2023-06-24T17:27:32.110Z,33.92
2023-06-24T17:30:00.197Z,30.20
2023-06-24T17:32:27.120Z,33.80
2023-06-24T17:34:54.006Z,29.25
2023-06-24T17:37:20.814Z,34.63
2023-06-24T17:39:47.614Z,30.25
2023-06-24T17:42:14.515Z,29.50
2023-06-24T17:44:41.583Z,27.75
2023-06-24T17:47:08.571Z,28.23
2023-06-24T17:49:35.479Z,28.58
2023-06-24T17:52:02.422Z,29.05
2023-06-24T17:54:29.314Z,31.70
2023-06-24T17:56:56.250Z,29.98
2023-06-24T17:59:23.105Z,31.33
2023-06-24T18:01:50.047Z,30.83
2023-06-24T18:04:17.442Z,29.05
2023-06-24T18:06:45.249Z,28.20
2023-06-24T18:09:13.588Z,27.88
2023-06-24T18:11:43.360Z,25.77
2023-06-24T18:14:10.962Z,27.48
2023-06-24T18:16:42.519Z,25.92
2023-06-24T18:19:10.438Z,25.48
2023-06-24T18:21:37.823Z,35.45
2023-06-24T18:24:05.012Z,28.38
2023-06-24T18:26:32.067Z,32.38
2023-06-24T18:29:00.011Z,32.33
2023-06-24T18:31:27.265Z,31.27
2023-06-24T18:33:58.491Z,26.77
2023-06-24T18:36:26.137Z,30.60
2023-06-24T18:38:53.075Z,43.17
2023-06-24T18:41:19.859Z,35.17
2023-06-24T18:43:47.128Z,34.65
2023-06-24T18:46:13.968Z,31.55
2023-06-24T18:48:41.620Z,34.45
2023-06-24T18:51:08.760Z,30.30
2023-06-24T18:53:35.559Z,30.35
2023-06-24T18:56:03.382Z,31.33
2023-06-24T18:58:30.670Z,34.30
2023-06-24T19:00:57.663Z,32.47
2023-06-24T19:03:24.808Z,29.02
2023-06-24T19:05:52.124Z,30.17
2023-06-24T19:08:18.936Z,29.90
2023-06-24T19:10:45.947Z,30.33
2023-06-24T19:13:12.976Z,29.90
2023-06-24T19:15:40.131Z,30.60
2023-06-24T19:18:07.303Z,28.83
2023-06-24T19:20:34.328Z,29.83
2023-06-24T19:23:01.361Z,28.75
2023-06-24T19:25:28.296Z,27.27
2023-06-24T19:27:55.367Z,29.48
2023-06-24T19:30:22.262Z,30.80
2023-06-24T19:32:49.195Z,31.10
2023-06-24T19:35:18.745Z,31.83
2023-06-24T19:37:46.070Z,30.45
2023-06-24T19:40:13.024Z,31.80
2023-06-24T19:42:40.595Z,31.77
2023-06-24T19:45:08.944Z,31.77
2023-06-24T19:47:36.084Z,30.77
2023-06-24T19:50:03.279Z,36.60
2023-06-24T19:52:30.353Z,35.08
2023-06-24T19:54:57.290Z,34.88
2023-06-24T19:57:24.314Z,35.20
2023-06-24T19:59:51.309Z,32.95
2023-06-24T20:02:18.230Z,33.83
2023-06-24T20:04:46.629Z,31.52
2023-06-24T20:07:16.297Z,30.55
2023-06-24T20:09:44.358Z,28.13
2023-06-24T20:12:11.669Z,33.22
2023-06-24T20:14:38.523Z,32.05
2023-06-24T20:17:05.955Z,33.28
2023-06-24T20:19:33.176Z,34.25
2023-06-24T20:22:00.616Z,31.17
2023-06-24T20:24:28.035Z,30.48
2023-06-24T20:26:54.891Z,33.15
2023-06-24T20:29:22.071Z,32.95
2023-06-24T20:31:49.352Z,32.63
2023-06-24T20:34:16.548Z,32.33
2023-06-24T20:36:43.677Z,29.25
2023-06-24T20:39:10.555Z,34.33
2023-06-24T20:41:38.179Z,33.58
2023-06-24T20:44:05.844Z,35.25
2023-06-24T20:46:35.534Z,37.05
2023-06-24T20:49:02.627Z,33.78
2023-06-24T20:51:31.900Z,38.35
2023-06-24T20:53:58.945Z,40.95
2023-06-24T20:56:26.981Z,35.60
2023-06-24T20:58:55.453Z,31.48
2023-06-24T21:01:22.877Z,39.97
2023-06-24T21:03:49.914Z,35.97
2023-06-24T21:06:17.206Z,36.50
2023-06-24T21:08:44.166Z,36.28
2023-06-24T21:11:11.073Z,35.92
2023-06-24T21:13:38.199Z,33.78
2023-06-24T21:16:05.800Z,32.60
2023-06-24T21:18:33.226Z,35.13
2023-06-24T21:21:00.044Z,39.47
2023-06-24T21:23:26.854Z,39.33
2023-06-24T21:25:56.454Z,35.00
2023-06-24T21:28:23.431Z,37.60
2023-06-24T21:30:52.061Z,35.85
2023-06-24T21:33:19.011Z,37.00
2023-06-24T21:35:56.348Z,35.58
2023-06-24T21:38:27.281Z,37.95
2023-06-24T21:40:54.132Z,37.78
2023-06-24T21:43:21.464Z,40.17
2023-06-24T21:45:48.309Z,34.50
2023-06-24T21:48:15.283Z,37.05
2023-06-24T21:50:42.455Z,36.22
2023-06-24T21:53:09.245Z,36.20
2023-06-24T21:55:36.063Z,40.83
2023-06-24T21:58:02.935Z,37.55
2023-06-24T22:00:29.903Z,35.28
2023-06-24T22:02:56.772Z,35.80
2023-06-24T22:05:34.034Z,35.28
2023-06-24T22:08:03.703Z,31.25
2023-06-24T22:10:30.912Z,36.78
2023-06-24T22:12:57.872Z,35.05
2023-06-24T22:15:24.762Z,33.22
2023-06-24T22:17:51.730Z,34.35
2023-06-24T22:20:18.798Z,35.17
2023-06-24T22:22:46.922Z,34.55
2023-06-24T22:25:14.616Z,29.48
2023-06-24T22:27:41.530Z,30.63
2023-06-24T22:30:09.480Z,34.28
2023-06-24T22:32:40.215Z,35.10
2023-06-24T22:35:07.941Z,33.83
2023-06-24T22:37:35.073Z,39.08
2023-06-24T22:40:02.379Z,33.95
2023-06-24T22:42:29.637Z,35.22
2023-06-24T22:44:56.743Z,32.90
2023-06-24T22:47:23.918Z,36.80
2023-06-24T22:49:50.784Z,32.92
2023-06-24T22:52:17.981Z,34.95
2023-06-24T22:54:45.109Z,31.58
2023-06-24T22:57:11.962Z,36.00
2023-06-24T22:59:39.011Z,35.33
2023-06-24T23:02:06.883Z,35.22
2023-06-24T23:04:34.137Z,37.42
2023-06-24T23:07:02.224Z,36.88
2023-06-24T23:09:30.368Z,38.28
2023-06-24T23:11:58.983Z,38.75
2023-06-24T23:14:26.628Z,34.72
2023-06-24T23:16:53.695Z,33.38
2023-06-24T23:19:20.887Z,33.47
2023-06-24T23:21:48.553Z,36.00
2023-06-24T23:24:16.065Z,36.65
2023-06-24T23:26:52.100Z,32.95
2023-06-24T23:29:24.813Z,36.40
2023-06-24T23:31:52.394Z,35.58
2023-06-24T23:34:20.227Z,35.00
2023-06-24T23:36:47.381Z,38.05
2023-06-24T23:39:14.949Z,37.15
2023-06-24T23:41:42.678Z,35.88
2023-06-24T23:44:10.639Z,33.40
2023-06-24T23:46:37.548Z,34.80
2023-06-24T23:49:04.422Z,33.03
2023-06-24T23:51:31.515Z,37.20
2023-06-24T23:53:58.414Z,34.10
2023-06-24T23:56:25.677Z,35.40
2023-06-24T23:58:52.726Z,34.58
